Time;durP1;ratioP1;P1;durP2;ratioP2;P2;SDS_P1;SDS_P2;PMS_P1;PMS_P2;Temp;Humidity;BMP_temperature;BMP_pressure;BME280_temperature;BME280_humidity;BME280_pressure;Samples;Min_cycle;Max_cycle;Signal;HPM_P1;HPM_P2
2021/11/28 00:00:23;;;;;;;35.30;22.23;;;;;;;15.86;100.00;99439.98;1737038;82;20452;-68
2021/11/28 00:02:50;;;;;;;35.23;21.70;;;;;;;15.79;100.00;99437.50;1736325;82;21552;-68
2021/11/28 00:05:20;;;;;;;32.33;20.03;;;;;;;16.23;100.00;99439.00;1735922;82;21242;-87
2021/11/28 00:13:08;;;;;;;29.37;18.07;;;;;;;15.74;100.00;99429.53;1736014;82;21248;-72
2021/11/28 00:15:37;;;;;;;28.63;18.20;;;;;;;16.00;100.00;99436.02;1736520;82;21177;-69
2021/11/28 00:18:04;;;;;;;27.27;18.10;;;;;;;16.68;100.00;99434.12;1738616;82;21225;-69
2021/11/28 00:20:33;;;;;;;25.43;18.20;;;;;;;16.91;100.00;99427.08;1742710;81;21194;-71
2021/11/28 00:23:00;;;;;;;26.43;17.57;;;;;;;16.87;100.00;99426.77;1744845;81;21392;-76
2021/11/28 00:25:28;;;;;;;27.03;16.57;;;;;;;17.01;100.00;99421.94;1737746;82;21279;-69
2021/11/28 00:27:57;;;;;;;27.50;19.23;;;;;;;17.50;100.00;99424.06;1730458;82;22283;-73
2021/11/28 00:30:26;;;;;;;27.97;17.73;;;;;;;16.84;100.00;99432.52;1739158;82;21397;-75
2021/11/28 00:32:53;;;;;;;27.03;16.87;;;;;;;16.65;100.00;99431.97;1735294;82;21354;-71
2021/11/28 00:35:21;;;;;;;30.43;17.40;;;;;;;16.75;100.00;99434.78;1736508;82;21349;-69
2021/11/28 00:37:49;;;;;;;26.00;17.33;;;;;;;16.94;100.00;99435.28;1693346;82;21253;-72
2021/11/28 00:40:16;;;;;;;24.27;17.17;;;;;;;16.26;100.00;99441.68;1743137;81;22372;-69
2021/11/28 00:42:45;;;;;;;25.07;17.30;;;;;;;16.22;100.00;99437.94;1737154;82;21080;-85
2021/11/28 00:45:12;;;;;;;28.67;18.37;;;;;;;16.50;100.00;99437.02;1735966;82;21748;-70
2021/11/28 00:47:39;;;;;;;26.23;18.10;;;;;;;16.96;100.00;99431.08;1736429;82;21819;-69
2021/11/28 00:52:39;;;;;;;27.37;17.57;;;;;;;16.79;100.00;99420.61;1735563;82;21387;-78
2021/11/28 00:55:08;;;;;;;25.43;16.53;;;;;;;16.53;100.00;99423.39;1734206;82;21576;-70
2021/11/28 00:57:36;;;;;;;25.20;16.47;;;;;;;16.78;100.00;99431.66;1735988;82;21771;-69
2021/11/28 01:00:06;;;;;;;26.53;17.17;;;;;;;16.66;100.00;99438.82;1736072;82;21349;-86
2021/11/28 01:02:35;;;;;;;23.47;15.80;;;;;;;16.55;100.00;99455.50;1736002;82;22425;-87
2021/11/28 01:05:05;;;;;;;26.03;16.93;;;;;;;16.50;100.00;99456.23;1739877;82;21423;-68
2021/11/28 01:07:38;;;;;;;27.83;17.27;;;;;;;16.46;100.00;99459.59;1737598;82;21339;-68
2021/11/28 01:10:04;;;;;;;30.40;18.60;;;;;;;16.44;100.00;99463.79;1735508;82;21222;-81
2021/11/28 01:12:34;;;;;;;26.63;17.93;;;;;;;16.32;100.00;99457.80;1736107;82;21925;-74
2021/11/28 01:15:01;;;;;;;25.80;15.73;;;;;;;16.35;100.00;99461.79;1736560;82;21449;-70
2021/11/28 01:17:33;;;;;;;25.77;16.67;;;;;;;15.65;100.00;99466.44;1736444;82;21219;-69
2021/11/28 01:19:59;;;;;;;26.27;17.47;;;;;;;15.65;100.00;99466.44;1736228;82;21882;-72
2021/11/28 01:22:27;;;;;;;26.30;16.27;;;;;;;15.45;100.00;99472.05;1735497;82;22861;-88
2021/11/28 01:24:54;;;;;;;26.90;15.93;;;;;;;15.92;100.00;99476.36;1736127;82;21189;-70
2021/11/28 01:27:22;;;;;;;26.13;15.93;;;;;;;15.66;100.00;99483.78;1736134;82;21410;-69
2021/11/28 01:29:50;;;;;;;23.33;16.80;;;;;;;15.79;100.00;99485.31;1736879;82;21412;-82
2021/11/28 01:32:17;;;;;;;25.97;16.47;;;;;;;15.72;100.00;99484.17;1736250;82;21319;-73
2021/11/28 01:34:45;;;;;;;22.90;16.20;;;;;;;15.85;100.00;99486.22;1723479;82;21559;-69
2021/11/28 01:37:12;;;;;;;27.23;15.97;;;;;;;15.85;100.00;99486.22;1725765;82;21452;-69
2021/11/28 01:39:41;;;;;;;24.57;16.17;;;;;;;16.08;100.00;99483.46;1736179;82;21509;-71
2021/11/28 01:42:09;;;;;;;24.97;16.63;;;;;;;16.40;100.00;99469.75;1725224;80;22337;-83
2021/11/28 01:44:36;;;;;;;23.93;16.73;;;;;;;16.40;100.00;99469.75;1728497;81;22226;-70
2021/11/28 01:47:06;;;;;;;20.20;14.53;;;;;;;16.61;100.00;99471.66;1713132;82;21756;-70
2021/11/28 01:49:34;;;;;;;21.93;15.57;;;;;;;16.51;100.00;99480.70;1729223;81;21375;-69
2021/11/28 01:52:04;;;;;;;23.23;16.67;;;;;;;15.72;100.00;99472.34;1736386;82;21396;-86
2021/11/28 01:54:32;;;;;;;25.87;17.20;;;;;;;15.71;100.00;99477.82;1735839;82;21498;-69
2021/11/28 01:57:00;;;;;;;24.37;17.33;;;;;;;15.95;100.00;99471.43;1731093;82;21934;-70
2021/11/28 01:59:30;;;;;;;20.23;15.53;;;;;;;15.95;100.00;99471.43;1727209;82;22042;-70
2021/11/28 02:01:57;;;;;;;22.33;16.60;;;;;;;15.90;100.00;99473.16;1737189;82;21407;-70
2021/11/28 02:04:25;;;;;;;25.97;18.30;;;;;;;15.67;100.00;99478.01;1735898;82;21348;-85
2021/11/28 02:06:52;;;;;;;30.97;21.73;;;;;;;15.67;100.00;99478.01;1736110;82;21495;-69
2021/11/28 02:09:22;;;;;;;37.23;24.40;;;;;;;15.83;100.00;99473.30;1734827;81;22256;-70
2021/11/28 02:11:52;;;;;;;33.43;26.13;;;;;;;15.83;100.00;99429.94;1727977;81;21580;-69
2021/11/28 02:14:20;;;;;;;31.13;23.20;;;;;;;15.70;100.00;99467.83;1736326;82;21619;-88
2021/11/28 02:16:50;;;;;;;30.25;21.82;;;;;;;15.70;100.00;99467.83;1740052;82;21488;-68
2021/11/28 02:19:18;;;;;;;27.40;20.17;;;;;;;16.08;100.00;99470.84;1746285;81;21244;-69
2021/11/28 02:21:47;;;;;;;26.93;18.07;;;;;;;15.45;100.00;99477.31;1740105;82;21539;-69
2021/11/28 02:24:14;;;;;;;23.10;17.37;;;;;;;15.45;100.00;99477.31;1737107;82;21400;-73
2021/11/28 02:26:42;;;;;;;23.50;15.03;;;;;;;15.55;100.00;99464.38;1734129;81;21833;-70
2021/11/28 02:29:11;;;;;;;17.20;12.60;;;;;;;16.01;100.00;99467.04;1724997;82;21609;-71
2021/11/28 02:31:38;;;;;;;19.57;13.77;;;;;;;16.01;100.00;99467.04;1725670;82;21479;-69
2021/11/28 02:34:07;;;;;;;18.87;15.03;;;;;;;15.44;100.00;99478.87;1738746;81;21279;-87
2021/11/28 02:36:34;;;;;;;20.07;14.67;;;;;;;15.44;100.00;99478.87;1727570;82;21475;-79
2021/11/28 02:39:01;;;;;;;19.63;13.87;;;;;;;15.58;100.00;99481.51;1735743;82;21684;-69
2021/11/28 02:41:29;;;;;;;22.20;13.83;;;;;;;15.45;100.00;99485.70;1727764;82;21419;-70
2021/11/28 02:43:57;;;;;;;22.17;15.30;;;;;;;15.53;100.00;99482.22;1732503;82;21594;-72
2021/11/28 02:46:25;;;;;;;21.43;14.03;;;;;;;15.72;100.00;99483.34;1728545;82;21363;-71
2021/11/28 02:48:53;;;;;;;19.13;13.07;;;;;;;15.72;100.00;99483.34;1736497;81;21402;-72
2021/11/28 02:51:20;;;;;;;18.30;12.33;;;;;;;15.89;100.00;99482.09;1736540;82;22558;-70
2021/11/28 02:53:48;;;;;;;18.93;13.03;;;;;;;15.58;100.00;99472.31;1736408;82;21268;-70
2021/11/28 02:56:16;;;;;;;16.93;12.40;;;;;;;15.58;100.00;99472.31;1735631;82;21535;-72
2021/11/28 02:58:46;;;;;;;20.20;11.23;;;;;;;15.70;100.00;99478.86;1740281;82;21289;-70
2021/11/28 03:01:18;;;;;;;21.67;12.10;;;;;;;15.18;100.00;99481.50;1735933;81;21353;-69
2021/11/28 03:03:49;;;;;;;19.40;12.37;;;;;;;15.18;100.00;99481.50;1687315;80;21713;-89
2021/11/28 03:06:17;;;;;;;20.00;13.17;;;;;;;15.42;100.00;99479.11;1768243;81;21370;-68
2021/11/28 03:08:44;;;;;;;18.70;11.80;;;;;;;15.42;100.00;99479.11;1755975;80;21423;-71
2021/11/28 03:11:13;;;;;;;21.27;14.70;;;;;;;15.39;100.00;99487.97;1736443;81;21859;-69
2021/11/28 03:13:49;;;;;;;22.17;15.98;;;;;;;15.39;100.00;99487.97;1768095;81;21451;-86
2021/11/28 03:16:19;;;;;;;20.73;14.60;;;;;;;15.18;100.00;99489.38;1758231;80;20993;-70
2021/11/28 03:18:47;;;;;;;21.73;13.90;;;;;;;15.31;100.00;99492.55;1766892;81;21308;-87
2021/11/28 03:21:28;;;;;;;19.50;13.50;;;;;;;15.28;100.00;99486.97;1757461;81;21576;-69
2021/11/28 03:23:58;;;;;;;19.60;14.07;;;;;;;15.28;100.00;99486.97;1767558;81;21614;-69
2021/11/28 03:26:28;;;;;;;22.60;16.00;;;;;;;15.17;100.00;99488.59;1768238;80;21476;-88
2021/11/28 03:29:00;;;;;;;24.30;17.87;;;;;;;15.18;100.00;99500.67;1749648;80;21830;-69
2021/11/28 03:31:41;;;;;;;25.65;18.77;;;;;;;15.07;100.00;99497.55;1686363;84;26963;-69
2021/11/28 03:34:11;;;;;;;28.80;17.47;;;;;;;15.12;100.00;99495.58;1750533;80;21085;-77
2021/11/28 03:36:44;;;;;;;20.10;15.40;;;;;;;15.18;100.00;99488.86;1762699;81;21567;-69
2021/11/28 03:39:13;;;;;;;22.37;16.03;;;;;;;15.18;100.00;99488.86;1734891;82;21668;-80
2021/11/28 03:41:42;;;;;;;23.63;17.53;;;;;;;16.08;100.00;99492.66;1767111;80;21586;-71
2021/11/28 03:44:10;;;;;;;24.40;15.80;;;;;;;16.08;100.00;99492.66;1755758;80;21503;-69
2021/11/28 03:46:38;;;;;;;20.67;13.70;;;;;;;16.13;100.00;99499.83;1765363;80;21607;-69
2021/11/28 03:49:06;;;;;;;20.40;13.03;;;;;;;16.21;100.00;99509.46;1767203;81;21272;-85
2021/11/28 03:51:33;;;;;;;17.27;11.23;;;;;;;15.51;100.00;99508.42;1766920;81;21440;-69
2021/11/28 03:54:02;;;;;;;18.03;12.80;;;;;;;15.82;100.00;99509.81;1766820;80;21674;-76
2021/11/28 03:56:34;;;;;;;17.87;13.00;;;;;;;15.66;100.00;99509.27;1741090;80;21287;-70
2021/11/28 03:59:03;;;;;;;21.23;13.80;;;;;;;15.66;100.00;99509.27;1762602;81;21298;-86
2021/11/28 04:01:31;;;;;;;22.17;12.90;;;;;;;15.53;100.00;99511.60;1773237;79;22212;-70
2021/11/28 04:03:58;;;;;;;23.30;13.57;;;;;;;15.46;100.00;99513.07;1802946;77;21472;-69
2021/11/28 04:06:45;;;;;;;20.60;12.93;;;;;;;15.61;100.00;99511.75;1776877;80;21394;-75
2021/11/28 04:09:13;;;;;;;18.93;11.53;;;;;;;15.61;100.00;99511.75;1776046;80;23695;-69
2021/11/28 04:11:42;;;;;;;19.97;13.93;;;;;;;15.85;100.00;99509.88;1765009;80;21332;-70
2021/11/28 04:14:11;;;;;;;22.27;14.93;;;;;;;15.11;100.00;99513.64;1765087;80;21205;-69
2021/11/28 04:16:39;;;;;;;21.70;14.07;;;;;;;14.76;100.00;99518.41;1750848;80;21904;-84
2021/11/28 04:19:09;;;;;;;22.47;13.63;;;;;;;14.93;100.00;99514.08;1776679;80;21494;-69
2021/11/28 04:21:42;;;;;;;21.50;13.53;;;;;;;14.93;100.00;99514.08;1751005;80;21668;-70
2021/11/28 04:24:07;;;;;;;23.90;16.10;;;;;;;15.22;100.00;99525.95;1776594;80;21388;-89
2021/11/28 04:26:35;;;;;;;25.50;16.03;;;;;;;15.63;100.00;99518.38;1777304;79;21666;-70
2021/11/28 04:29:03;;;;;;;20.63;16.33;;;;;;;15.44;100.00;99511.70;1775842;80;21897;-69
2021/11/28 04:31:30;;;;;;;21.97;16.23;;;;;;;15.21;100.00;99508.09;1768795;80;21462;-70
2021/11/28 04:33:58;;;;;;;20.33;15.00;;;;;;;15.21;100.00;99508.09;1776404;80;21965;-89
2021/11/28 04:36:25;;;;;;;20.60;14.83;;;;;;;15.20;100.00;99511.76;1742588;80;21433;-70
2021/11/28 04:38:52;;;;;;;19.03;13.67;;;;;;;14.99;100.00;99513.66;1777351;80;21376;-72
2021/11/28 04:41:19;;;;;;;20.97;13.73;;;;;;;15.32;100.00;99525.66;1776986;79;21247;-69
2021/11/28 04:43:48;;;;;;;19.97;13.50;;;;;;;15.29;100.00;99527.42;1776238;79;21983;-86
2021/11/28 04:46:16;;;;;;;20.53;13.87;;;;;;;15.52;100.00;99525.25;1777186;80;21462;-69
2021/11/28 04:48:45;;;;;;;15.63;11.73;;;;;;;15.23;100.00;99537.55;1777596;80;21454;-70
2021/11/28 04:51:14;;;;;;;18.97;12.97;;;;;;;14.86;100.00;99549.34;1746671;80;21427;-69
2021/11/28 04:53:41;;;;;;;15.13;11.40;;;;;;;14.86;100.00;99549.34;1777347;79;21918;-70
2021/11/28 04:56:13;;;;;;;18.17;10.83;;;;;;;15.05;100.00;99551.61;1755389;79;21410;-69
2021/11/28 04:58:40;;;;;;;16.03;11.37;;;;;;;15.05;100.00;99551.61;1777263;80;21387;-76
2021/11/28 05:01:07;;;;;;;14.83;10.80;;;;;;;14.82;100.00;99554.23;1771723;80;21446;-69
2021/11/28 05:03:35;;;;;;;17.47;10.37;;;;;;;14.60;100.00;99555.30;1768944;79;21469;-70
2021/11/28 05:06:20;;;;;;;14.80;10.77;;;;;;;14.56;100.00;99558.09;1685014;83;21605;-68
2021/11/28 05:09:07;;;;;;;17.83;11.40;;;;;;;14.56;100.00;99558.09;1759451;79;21385;-69
2021/11/28 05:11:35;;;;;;;15.83;11.60;;;;;;;15.15;100.00;99558.09;1777022;79;21487;-84
2021/11/28 05:14:03;;;;;;;16.20;11.30;;;;;;;15.15;100.00;99558.09;1777113;79;22004;-70
2021/11/28 05:16:31;;;;;;;16.10;10.57;;;;;;;15.06;100.00;99562.38;1776749;79;21493;-70
2021/11/28 05:19:03;;;;;;;16.20;11.00;;;;;;;15.17;100.00;99578.36;1767244;79;21670;-70
2021/11/28 05:21:35;;;;;;;16.37;10.93;;;;;;;15.17;100.00;99578.36;1775212;80;21261;-78
2021/11/28 05:24:03;;;;;;;17.90;11.20;;;;;;;15.58;100.00;99578.70;1776473;79;21708;-80
2021/11/28 05:26:31;;;;;;;15.47;10.17;;;;;;;15.85;100.00;99579.52;1751130;80;21528;-69
2021/11/28 05:28:58;;;;;;;17.20;11.07;;;;;;;16.06;100.00;99581.47;1777167;80;21167;-69
2021/11/28 05:34:08;;;;;;;14.43;9.53;;;;;;;16.50;100.00;99598.82;1831444;77;22578;-70
2021/11/28 05:36:51;;;;;;;16.13;10.37;;;;;;;16.30;100.00;99601.38;1799855;79;20880;-70
2021/11/28 05:39:18;;;;;;;15.83;10.63;;;;;;;16.39;100.00;99603.11;1805058;79;21668;-89
2021/11/28 05:41:47;;;;;;;17.63;10.80;;;;;;;16.27;100.00;99594.48;1803619;79;21728;-73
2021/11/28 05:44:15;;;;;;;14.23;10.40;;;;;;;16.32;100.00;99601.14;1805340;79;23047;-70
2021/11/28 05:46:44;;;;;;;14.57;9.20;;;;;;;16.60;100.00;99596.89;1800816;79;21709;-70
2021/11/28 05:49:16;;;;;;;17.00;10.27;;;;;;;16.43;100.00;99589.75;1786626;79;21606;-76
2021/11/28 05:52:03;;;;;;;13.67;9.23;;;;;;;16.70;100.00;99587.81;1755982;80;22273;-69
2021/11/28 05:54:30;;;;;;;13.27;9.03;;;;;;;16.70;100.00;99587.81;1757150;80;21525;-70
2021/11/28 05:56:58;;;;;;;15.03;9.47;;;;;;;17.30;100.00;99586.35;1756590;80;21654;-69
2021/11/28 05:59:27;;;;;;;10.93;7.80;;;;;;;15.91;100.00;99596.96;1742472;80;21680;-73
2021/11/28 06:01:55;;;;;;;12.80;8.87;;;;;;;16.16;100.00;99598.75;1782995;80;21753;-75
2021/11/28 06:04:23;;;;;;;19.50;12.87;;;;;;;16.16;100.00;99598.75;1770577;80;22214;-71
2021/11/28 06:07:01;;;;;;;20.70;17.53;;;;;;;16.13;100.00;99605.80;1764874;80;22316;-72
2021/11/28 06:09:32;;;;;;;21.70;16.97;;;;;;;16.49;100.00;99602.49;1754931;81;21691;-70
2021/11/28 06:11:59;;;;;;;20.63;16.93;;;;;;;16.32;100.00;99601.66;1787310;79;21727;-71
2021/11/28 06:14:28;;;;;;;15.07;13.07;;;;;;;16.94;100.00;99608.24;1751805;81;22137;-70
2021/11/28 06:16:57;;;;;;;13.47;10.17;;;;;;;16.94;100.00;99608.24;1766138;80;22597;-86
2021/11/28 06:19:29;;;;;;;11.33;8.87;;;;;;;17.03;100.00;99576.51;1735409;80;21744;-71
2021/11/28 06:22:14;;;;;;;9.97;7.70;;;;;;;17.34;100.00;99602.73;1688998;83;21593;-75
2021/11/28 06:24:43;;;;;;;12.80;7.80;;;;;;;17.73;100.00;99602.72;1731798;80;21657;-74
2021/11/28 06:27:13;;;;;;;12.67;9.13;;;;;;;17.73;100.00;99602.72;1772464;80;21486;-68
2021/11/28 06:29:41;;;;;;;14.30;9.20;;;;;;;17.29;100.00;99608.47;1755315;80;21682;-69
2021/11/28 06:32:08;;;;;;;22.20;8.47;;;;;;;15.10;100.00;99608.66;1760012;80;21724;-68
2021/11/28 06:34:54;;;;;;;13.63;8.37;;;;;;;15.05;100.00;99610.66;1769875;80;21669;-68
2021/11/28 06:37:32;;;;;;;11.27;8.50;;;;;;;15.28;100.00;99603.30;1718498;80;21653;-70
2021/11/28 06:40:18;;;;;;;17.23;11.17;;;;;;;15.60;100.00;99608.16;1769374;80;21538;-75
2021/11/28 06:42:59;;;;;;;11.90;9.20;;;;;;;14.56;100.00;99617.89;1770625;80;22120;-68
2021/11/28 06:45:27;;;;;;;11.60;8.77;;;;;;;14.79;100.00;99611.89;1770190;80;22284;-67
2021/11/28 06:47:54;;;;;;;13.43;9.47;;;;;;;15.40;100.00;99607.73;1769708;80;21537;-75
2021/11/28 06:50:21;;;;;;;10.20;8.83;;;;;;;15.05;100.00;99610.66;1769307;80;21750;-69
2021/11/28 06:53:07;;;;;;;9.53;8.07;;;;;;;14.71;100.00;99603.56;1770111;80;22154;-68
2021/11/28 06:55:34;;;;;;;10.27;7.53;;;;;;;14.56;100.00;99623.14;1769321;80;21630;-67
2021/11/28 06:58:04;;;;;;;12.43;9.37;;;;;;;15.07;100.00;99615.16;1766203;80;21647;-69
2021/11/28 07:00:34;;;;;;;11.10;8.67;;;;;;;16.20;100.00;99610.92;1770088;80;21695;-68
2021/11/28 07:03:01;;;;;;;12.27;8.67;;;;;;;16.96;100.00;99604.31;1770077;80;21799;-68
2021/11/28 07:05:36;;;;;;;11.67;9.87;;;;;;;16.86;100.00;99611.25;1702224;80;21608;-67
2021/11/28 07:08:04;;;;;;;14.40;10.50;;;;;;;16.73;100.00;99622.38;1763621;80;22228;-67
2021/11/28 07:10:33;;;;;;;13.40;9.80;;;;;;;17.26;100.00;99613.17;1769467;80;22011;-66
2021/11/28 07:13:03;;;;;;;12.33;8.88;;;;;;;16.83;100.00;99619.66;1771298;80;21727;-68
2021/11/28 07:15:31;;;;;;;17.57;13.30;;;;;;;16.83;100.00;99622.28;1765355;80;21003;-71
2021/11/28 07:17:58;;;;;;;15.40;10.40;;;;;;;16.95;100.00;99629.58;1733656;80;21600;-71
2021/11/28 07:20:39;;;;;;;15.17;10.60;;;;;;;17.45;100.00;99638.72;1723764;82;21760;-66
2021/11/28 07:23:06;;;;;;;12.93;9.20;;;;;;;16.99;100.00;99635.95;1757505;81;21773;-72
2021/11/28 07:25:34;;;;;;;16.33;9.77;;;;;;;17.24;100.00;99628.44;1758757;81;22220;-72
2021/11/28 07:28:03;;;;;;;15.50;10.67;;;;;;;17.22;100.00;99631.02;1757069;81;21751;-64
2021/11/28 07:30:34;;;;;;;13.37;10.93;;;;;;;17.46;100.00;99631.12;1758814;81;22258;-64
2021/11/28 07:33:04;;;;;;;17.33;13.50;;;;;;;17.28;100.00;99626.64;1760241;81;22308;-67
2021/11/28 07:35:36;;;;;;;17.10;14.23;;;;;;;17.10;100.00;99627.17;1766776;81;21673;-69
2021/11/28 07:38:22;;;;;;;18.20;14.70;;;;;;;17.06;100.00;99620.80;1753672;79;21655;-74
2021/11/28 07:40:49;;;;;;;14.53;12.47;;;;;;;16.74;100.00;99623.17;1762256;79;21677;-67
2021/11/28 07:43:21;;;;;;;14.97;12.37;;;;;;;16.90;100.00;99625.56;1764814;79;21707;-72
2021/11/28 07:45:54;;;;;;;13.57;10.67;;;;;;;16.90;100.00;99625.56;1711858;80;21622;-72
2021/11/28 07:48:30;;;;;;;13.50;10.20;;;;;;;17.18;100.00;99629.39;1764800;80;22301;-66
2021/11/28 07:51:15;;;;;;;14.97;10.27;;;;;;;16.16;100.00;99632.94;1763441;80;21695;-67
2021/11/28 07:53:46;;;;;;;13.60;10.57;;;;;;;16.28;100.00;99623.69;1763711;80;22016;-71
2021/11/28 07:56:14;;;;;;;29.93;16.77;;;;;;;16.26;100.00;99629.19;1756888;80;21698;-69
2021/11/28 07:58:59;;;;;;;19.67;12.37;;;;;;;16.26;100.00;99629.19;1764732;80;21084;-70
2021/11/28 08:01:28;;;;;;;15.73;11.73;;;;;;;16.09;100.00;99620.45;1769014;80;21772;-68
2021/11/28 08:03:59;;;;;;;17.10;12.37;;;;;;;15.58;100.00;99615.48;1730715;80;21709;-66
2021/11/28 08:06:47;;;;;;;20.57;16.93;;;;;;;15.58;100.00;99615.48;1761037;79;21005;-66
2021/11/28 08:09:33;;;;;;;21.23;18.90;;;;;;;15.79;100.00;99613.56;1768308;80;22638;-66
2021/11/28 08:12:08;;;;;;;28.80;19.50;;;;;;;15.79;100.00;99578.09;1767428;80;20979;-66
2021/11/28 08:14:35;;;;;;;215.30;92.50;;;;;;;15.97;100.00;99606.03;1757771;80;21012;-63
2021/11/28 08:17:04;;;;;;;334.43;180.47;;;;;;;16.01;100.00;99605.05;1758205;80;21727;-72
2021/11/28 08:19:33;;;;;;;59.97;35.80;;;;;;;16.01;100.00;99599.27;1753098;80;21090;-65
2021/11/28 08:22:02;;;;;;;35.97;25.47;;;;;;;16.03;100.00;99598.53;1761881;80;21525;-68
2021/11/28 08:24:29;;;;;;;19.87;14.23;;;;;;;16.17;100.00;99597.72;1748278;80;22905;-64
2021/11/28 08:26:56;;;;;;;18.70;16.70;;;;;;;16.17;100.00;99592.45;1762804;80;21657;-70
2021/11/28 08:29:24;;;;;;;17.77;15.53;;;;;;;16.36;100.00;99597.52;1762702;80;21659;-65
2021/11/28 08:31:51;;;;;;;17.90;16.03;;;;;;;16.15;100.00;99594.54;1759086;80;21619;-66
2021/11/28 08:34:38;;;;;;;25.20;19.57;;;;;;;16.77;100.00;99591.13;1750368;80;23238;-69
2021/11/28 08:37:17;;;;;;;294.57;177.33;;;;;;;16.79;100.00;99598.27;1751567;80;21703;-66
2021/11/28 08:39:46;;;;;;;109.23;67.93;;;;;;;16.48;100.00;99602.22;1742503;81;22078;-75
2021/11/28 08:42:13;;;;;;;36.93;27.00;;;;;;;16.50;100.00;99598.82;1746832;81;21673;-67
2021/11/28 08:44:40;;;;;;;17.90;14.47;;;;;;;16.61;100.00;99590.06;1752711;80;21046;-71
2021/11/28 08:47:07;;;;;;;13.63;10.07;;;;;;;16.58;100.00;99598.42;1734446;81;22178;-64
2021/11/28 08:49:37;;;;;;;16.33;13.33;;;;;;;16.44;100.00;99589.23;1723945;82;21160;-66
2021/11/28 08:52:06;;;;;;;21.03;18.83;;;;;;;16.41;100.00;99589.73;1735186;79;21607;-64
2021/11/28 08:54:34;;;;;;;18.50;14.40;;;;;;;16.83;100.00;99597.28;1742893;80;21792;-65
2021/11/28 08:57:01;;;;;;;18.20;16.07;;;;;;;17.28;100.00;99602.94;1739468;82;21043;-65
2021/11/28 08:59:30;;;;;;;14.97;13.00;;;;;;;17.49;100.00;99602.14;1744061;79;21111;-66
2021/11/28 09:01:58;;;;;;;64.53;58.63;;;;;;;17.83;100.00;99595.47;1743331;81;21174;-69
2021/11/28 09:04:26;;;;;;;33.37;25.07;;;;;;;17.80;100.00;99595.42;1733389;81;22148;-66
2021/11/28 09:06:53;;;;;;;50.23;37.23;;;;;;;17.55;100.00;99597.23;1746433;79;20972;-66
2021/11/28 09:09:21;;;;;;;23.43;18.03;;;;;;;17.69;100.00;99598.95;1743491;79;21694;-69
2021/11/28 09:11:48;;;;;;;18.97;15.30;;;;;;;17.69;100.00;99598.95;1745734;81;20883;-67
2021/11/28 09:14:16;;;;;;;16.33;13.07;;;;;;;17.91;100.00;99605.57;1741911;81;22152;-69
2021/11/28 09:16:45;;;;;;;17.50;11.70;;;;;;;17.99;100.00;99606.45;1742170;81;21057;-75
2021/11/28 09:21:41;;;;;;;15.97;12.77;;;;;;;18.34;100.00;99590.20;1750730;79;20978;-68
2021/11/28 09:26:56;;;;;;;32.57;20.97;;;;;;;18.14;100.00;99590.78;1718919;80;21392;-67
2021/11/28 09:29:23;;;;;;;41.83;22.37;;;;;;;18.21;100.00;99594.02;1744184;82;20972;-68
2021/11/28 09:31:52;;;;;;;144.43;60.70;;;;;;;15.38;100.00;99600.59;1690916;83;20911;-72
2021/11/28 09:34:20;;;;;;;193.27;72.90;;;;;;;16.39;100.00;99597.05;1743538;81;20944;-66
2021/11/28 09:36:48;;;;;;;58.10;29.50;;;;;;;17.13;100.00;99601.67;1691329;84;21006;-65
2021/11/28 09:39:17;;;;;;;22.00;14.57;;;;;;;17.10;100.00;99598.20;1742364;81;21045;-66
2021/11/28 09:41:44;;;;;;;65.90;40.20;;;;;;;17.24;100.00;99598.67;1726669;80;20994;-67
2021/11/28 09:44:11;;;;;;;23.40;16.70;;;;;;;17.27;100.00;99594.21;1729792;80;20985;-71
2021/11/28 09:46:42;;;;;;;22.10;15.80;;;;;;;17.64;100.00;99599.70;1723597;81;22124;-66
2021/11/28 09:49:10;;;;;;;16.90;13.47;;;;;;;17.82;100.00;99597.84;1740325;81;21587;-67
2021/11/28 09:51:38;;;;;;;16.63;12.90;;;;;;;17.96;100.00;99601.16;1749944;81;21156;-63
2021/11/28 09:54:06;;;;;;;19.90;15.50;;;;;;;17.80;100.00;99599.91;1750374;81;21014;-73
2021/11/28 09:56:38;;;;;;;19.70;15.70;;;;;;;17.77;100.00;99599.08;1728784;80;20949;-67
2021/11/28 09:59:06;;;;;;;23.03;17.57;;;;;;;18.26;100.00;99597.75;1740966;81;21008;-66
2021/11/28 10:01:34;;;;;;;32.57;22.87;;;;;;;17.90;100.00;99593.44;1741481;81;21001;-66
2021/11/28 10:04:03;;;;;;;27.57;21.20;;;;;;;17.94;100.00;99596.64;1744119;81;21171;-72
2021/11/28 10:06:30;;;;;;;28.90;21.80;;;;;;;18.30;100.00;99596.23;1713352;81;20965;-67
2021/11/28 10:08:57;;;;;;;52.93;43.53;;;;;;;17.84;100.00;99601.00;1746663;80;21185;-65
2021/11/28 10:12:04;;;;;;;43.27;36.67;;;;;;;18.05;100.00;99608.63;1730458;81;21077;-68
2021/11/28 10:14:33;;;;;;;36.07;28.40;;;;;;;18.11;100.00;99605.80;1733333;81;21028;-65
2021/11/28 10:17:00;;;;;;;35.20;26.37;;;;;;;18.55;100.00;99596.44;1742148;80;21125;-69
2021/11/28 10:19:29;;;;;;;33.77;25.53;;;;;;;18.65;100.00;99593.89;1727335;81;20960;-65
2021/11/28 10:21:56;;;;;;;31.57;22.63;;;;;;;17.92;100.00;99605.34;1699214;83;20953;-71
2021/11/28 10:24:23;;;;;;;29.83;21.17;;;;;;;18.06;100.00;99608.90;1703265;83;21638;-64
2021/11/28 10:27:01;;;;;;;26.83;21.47;;;;;;;18.05;100.00;99610.74;1692411;83;21358;-66
2021/11/28 10:29:31;;;;;;;39.23;28.50;;;;;;;17.50;100.00;99609.83;1691518;84;21189;-73
2021/11/28 10:32:00;;;;;;;31.90;23.27;;;;;;;16.56;100.00;99614.19;1729146;81;21536;-68
2021/11/28 10:34:37;;;;;;;35.07;21.97;;;;;;;16.77;100.00;99616.12;1721625;81;21434;-67
2021/11/28 10:37:08;;;;;;;28.13;22.90;;;;;;;16.51;100.00;99616.19;1728791;81;20989;-64
2021/11/28 10:39:48;;;;;;;47.55;32.53;;;;;;;16.71;100.00;99615.23;1727634;81;21062;-64
2021/11/28 10:42:25;;;;;;;28.00;21.53;;;;;;;16.53;100.00;99612.82;1697589;83;22383;-65
2021/11/28 10:45:05;;;;;;;35.13;23.53;;;;;;;16.39;100.00;99615.46;1707488;81;20986;-66
2021/11/28 10:47:42;;;;;;;27.93;20.10;;;;;;;17.07;100.00;99613.16;1689077;83;21562;-71
2021/11/28 10:50:27;;;;;;;30.53;22.37;;;;;;;14.37;100.00;99624.19;1728862;82;20941;-64
2021/11/28 10:53:16;;;;;;;28.03;19.97;;;;;;;14.43;100.00;99624.59;1725626;82;21040;-67
2021/11/28 10:55:58;;;;;;;35.60;25.83;;;;;;;14.71;100.00;99616.67;1703997;81;21800;-64
2021/11/28 10:58:30;;;;;;;29.10;23.40;;;;;;;14.95;100.00;99621.44;1722568;81;20893;-71
2021/11/28 11:01:11;;;;;;;37.23;26.23;;;;;;;14.64;100.00;99614.15;1709289;83;22326;-66
2021/11/28 11:03:48;;;;;;;31.23;21.77;;;;;;;14.96;100.00;99612.53;1701696;82;21036;-64
2021/11/28 11:06:24;;;;;;;29.37;21.77;;;;;;;15.26;100.00;99613.73;1717144;81;20923;-68
2021/11/28 11:08:54;;;;;;;23.40;19.70;;;;;;;14.89;100.00;99613.97;1718191;82;22338;-65
2021/11/28 11:11:24;;;;;;;26.97;20.47;;;;;;;15.67;100.00;99604.13;1707268;82;20966;-66
2021/11/28 11:14:04;;;;;;;28.43;20.90;;;;;;;15.44;100.00;99604.41;1680746;84;22045;-65
2021/11/28 11:16:40;;;;;;;32.60;21.27;;;;;;;15.41;100.00;99619.31;1725542;81;20943;-64
2021/11/28 11:19:34;;;;;;;27.53;19.30;;;;;;;15.59;100.00;99614.45;1727210;80;21038;-65
2021/11/28 11:22:18;;;;;;;22.80;18.87;;;;;;;15.50;100.00;99621.89;1726579;80;22276;-68
2021/11/28 11:24:49;;;;;;;27.80;21.57;;;;;;;15.38;100.00;99616.34;1726383;82;21044;-64
2021/11/28 11:27:15;;;;;;;20.48;16.80;;;;;;;15.78;100.00;99619.86;1724680;81;21084;-70
2021/11/28 11:29:48;;;;;;;22.95;18.95;;;;;;;16.30;100.00;99616.37;1716614;82;20996;-70
2021/11/28 11:32:14;;;;;;;29.80;23.98;;;;;;;16.53;100.00;99619.39;1717841;81;26598;-67
2021/11/28 11:34:57;;;;;;;26.77;19.97;;;;;;;16.54;100.00;99619.67;1729477;81;21156;-66
2021/11/28 11:37:26;;;;;;;26.57;18.37;;;;;;;16.66;100.00;99616.97;1709240;82;21064;-64
2021/11/28 11:39:56;;;;;;;26.27;20.60;;;;;;;16.30;100.00;99628.20;1722052;82;20903;-67